Alcova, Wyoming
Current Conditions -  °F | °C
As of 2:53 PM on Monday 20 Oct 2014 (Local Time) from KCPR Reporting Station
Clear Clear  
Wind Chill: 24°   Ceiling: Unl
Heat Index: 24°   Visibility: 10mi
Dew Point:   Wind: 16mph
Humidity: 21%   Direction: 220°SW
Pressure: 30.02"   Gusts: NA
Location:  42.55°N, 106.72°W
Report Text: KCPR 202053Z 22014KT 10SM CLR 24/00 A3002 RMK AO2 SLP127 T02390000 56019
Loading
Personal Weather Stations






























Interactive Weather Map
Tropical Storm Tracking
New forecast layout! Learn more

10-Day Weather Forecast

Advertisements
Track Severe Weather on mobile